Time;durP1;ratioP1;P1;durP2;ratioP2;P2;SDS_P1;SDS_P2;PMS_P1;PMS_P2;Temp;Humidity;BMP_temperature;BMP_pressure;BME280_temperature;BME280_humidity;BME280_pressure;Samples;Min_cycle;Max_cycle;Signal;HPM_P1;HPM_P2
2023/08/31 00:02:01;;;;;;;1.75;1.65;;;15.50;99.90;;;;;;5012145;28;20130;-65
2023/08/31 00:04:28;;;;;;;1.55;1.45;;;15.50;99.90;;;;;;5008906;28;20476;-65
2023/08/31 00:06:56;;;;;;;2.13;1.40;;;15.50;99.90;;;;;;5014612;28;20053;-63
2023/08/31 00:09:24;;;;;;;1.27;1.17;;;15.60;99.90;;;;;;5012345;28;20129;-66
2023/08/31 00:11:51;;;;;;;1.25;1.15;;;15.60;99.90;;;;;;5009073;28;20891;-62
2023/08/31 00:14:19;;;;;;;0.95;0.95;;;15.60;99.90;;;;;;5014013;28;20050;-64
2023/08/31 00:16:46;;;;;;;1.67;1.40;;;15.60;99.90;;;;;;5020447;28;20800;-63
2023/08/31 00:19:14;;;;;;;1.40;1.30;;;15.60;99.90;;;;;;5012930;28;20204;-63
2023/08/31 00:21:42;;;;;;;1.27;1.17;;;15.60;99.90;;;;;;5011358;28;20096;-65
2023/08/31 00:24:10;;;;;;;2.05;1.00;;;15.60;99.90;;;;;;5009013;28;20038;-68
2023/08/31 00:26:40;;;;;;;2.13;1.65;;;15.50;99.90;;;;;;5012082;28;20482;-63
2023/08/31 00:29:10;;;;;;;1.30;1.20;;;15.50;99.90;;;;;;5009215;28;20042;-63
2023/08/31 00:31:38;;;;;;;1.83;1.30;;;15.60;99.90;;;;;;5007204;28;20140;-65
2023/08/31 00:34:06;;;;;;;2.30;2.10;;;15.60;99.90;;;;;;5005143;28;20042;-62
2023/08/31 00:36:33;;;;;;;2.17;1.65;;;15.70;99.90;;;;;;5012380;28;20132;-68
2023/08/31 00:39:10;;;;;;;1.27;1.27;;;15.70;99.90;;;;;;5009976;28;20053;-70
2023/08/31 00:41:39;;;;;;;1.40;1.30;;;15.80;99.90;;;;;;5006329;28;20137;-66
2023/08/31 00:44:06;;;;;;;2.97;1.60;;;15.80;99.90;;;;;;5009098;28;20041;-65
2023/08/31 00:46:34;;;;;;;2.03;1.88;;;15.80;99.90;;;;;;5010826;28;20041;-64
2023/08/31 00:49:03;;;;;;;3.08;1.23;;;15.80;99.90;;;;;;5007988;28;20380;-66
2023/08/31 00:51:30;;;;;;;1.55;1.45;;;15.80;99.90;;;;;;5023239;28;20069;-67
2023/08/31 00:53:58;;;;;;;1.67;1.58;;;15.80;99.90;;;;;;5014767;28;20049;-66
2023/08/31 00:56:26;;;;;;;1.83;1.73;;;15.80;99.90;;;;;;5011957;28;20054;-63
2023/08/31 00:58:56;;;;;;;2.47;1.30;;;15.70;99.90;;;;;;5021761;28;20503;-68
2023/08/31 01:01:35;;;;;;;3.63;1.47;;;15.70;99.90;;;;;;5017921;28;20081;-65
2023/08/31 01:04:23;;;;;;;2.38;2.08;;;15.70;99.90;;;;;;5008893;28;20315;-64
2023/08/31 01:06:56;;;;;;;3.90;2.15;;;15.70;99.90;;;;;;5007886;28;20041;-66
2023/08/31 01:10:01;;;;;;;2.60;1.98;;;15.70;99.90;;;;;;5020179;28;20447;-65
2023/08/31 01:12:40;;;;;;;2.33;2.15;;;15.70;99.90;;;;;;5014642;28;20948;-63
2023/08/31 01:15:12;;;;;;;3.22;3.03;;;15.70;99.90;;;;;;5007410;28;20042;-65
2023/08/31 01:17:45;;;;;;;1.90;1.80;;;15.70;99.90;;;;;;5009169;28;20037;-65
2023/08/31 01:20:19;;;;;;;2.30;1.90;;;15.70;99.90;;;;;;5027001;28;20119;-63
2023/08/31 01:23:11;;;;;;;2.47;2.28;;;15.70;99.90;;;;;;5018662;28;20054;-62
2023/08/31 01:25:42;;;;;;;1.73;1.63;;;15.70;99.90;;;;;;5009076;28;20048;-64
2023/08/31 01:28:11;;;;;;;5.85;2.08;;;15.60;99.90;;;;;;5004351;28;20060;-62
2023/08/31 01:30:38;;;;;;;1.65;1.55;;;15.60;99.90;;;;;;5009521;28;20050;-70
2023/08/31 01:33:05;;;;;;;1.67;1.58;;;15.60;99.90;;;;;;5003517;28;20042;-64
2023/08/31 01:35:41;;;;;;;1.65;1.55;;;15.70;99.90;;;;;;5012875;28;20041;-67
2023/08/31 01:38:10;;;;;;;2.30;2.10;;;15.60;99.90;;;;;;5006220;28;20088;-66
2023/08/31 01:40:49;;;;;;;2.75;2.55;;;15.70;99.90;;;;;;5010207;28;20104;-64
2023/08/31 01:43:17;;;;;;;2.13;1.90;;;15.60;99.90;;;;;;5004650;28;20458;-64
2023/08/31 01:45:46;;;;;;;2.47;2.00;;;15.70;99.90;;;;;;5013341;28;20096;-66
2023/08/31 01:48:16;;;;;;;2.97;2.67;;;15.70;99.90;;;;;;5005076;28;20128;-68
2023/08/31 01:50:43;;;;;;;2.08;1.95;;;15.70;99.90;;;;;;5009195;28;20851;-70
2023/08/31 01:53:12;;;;;;;1.88;1.77;;;15.70;99.90;;;;;;5009939;28;20389;-62
2023/08/31 01:55:41;;;;;;;2.33;2.13;;;15.70;99.90;;;;;;5019455;28;20140;-64
2023/08/31 01:58:08;;;;;;;2.30;2.20;;;15.70;99.90;;;;;;5002762;28;20060;-62
2023/08/31 02:00:38;;;;;;;2.30;2.13;;;15.80;99.90;;;;;;5026404;28;20052;-62
2023/08/31 02:03:06;;;;;;;3.60;2.13;;;15.70;99.90;;;;;;5018972;28;20058;-67
2023/08/31 02:05:33;;;;;;;2.78;1.88;;;15.80;99.90;;;;;;5016825;28;20053;-66
2023/08/31 02:08:00;;;;;;;1.95;1.77;;;15.70;99.90;;;;;;5008278;28;20065;-67
2023/08/31 02:10:29;;;;;;;3.45;2.28;;;15.70;99.90;;;;;;5017206;28;20053;-62
2023/08/31 02:12:56;;;;;;;2.45;2.25;;;15.70;99.90;;;;;;5018247;28;20058;-65
2023/08/31 02:15:23;;;;;;;2.28;2.10;;;15.70;99.90;;;;;;5007542;28;20052;-63
2023/08/31 02:17:50;;;;;;;2.33;2.13;;;15.80;99.90;;;;;;5006519;28;20044;-68
2023/08/31 02:20:17;;;;;;;3.28;3.00;;;15.70;99.90;;;;;;5005648;28;20046;-67
2023/08/31 02:22:44;;;;;;;3.25;2.85;;;15.70;99.90;;;;;;5022960;28;20045;-65
2023/08/31 02:25:12;;;;;;;4.10;3.22;;;15.80;99.90;;;;;;5011794;28;20133;-63
2023/08/31 02:27:39;;;;;;;4.63;2.50;;;15.70;99.90;;;;;;5018609;28;20054;-62
2023/08/31 02:30:06;;;;;;;2.83;2.63;;;15.70;99.90;;;;;;5008558;28;20616;-63
2023/08/31 02:32:33;;;;;;;2.75;2.50;;;15.70;99.90;;;;;;5013800;28;20053;-65
2023/08/31 02:35:01;;;;;;;2.53;1.75;;;15.70;99.90;;;;;;5009958;28;20061;-68
2023/08/31 02:37:28;;;;;;;2.00;1.90;;;15.70;99.90;;;;;;5006134;28;20041;-68
2023/08/31 02:39:55;;;;;;;4.50;1.98;;;15.70;99.90;;;;;;5025516;28;20054;-62
2023/08/31 02:42:22;;;;;;;2.83;2.53;;;15.70;99.90;;;;;;5012186;28;20454;-65
2023/08/31 02:44:53;;;;;;;1.80;1.70;;;15.70;99.90;;;;;;5008463;28;20112;-64
2023/08/31 02:47:20;;;;;;;2.33;2.13;;;15.70;99.90;;;;;;5013087;28;20775;-63
2023/08/31 02:49:47;;;;;;;3.17;1.83;;;15.70;99.90;;;;;;5022252;28;20073;-62
2023/08/31 02:52:15;;;;;;;2.60;2.40;;;15.80;99.90;;;;;;5012011;28;20574;-64
2023/08/31 02:54:42;;;;;;;1.80;1.63;;;15.70;99.90;;;;;;5010619;28;20100;-67
2023/08/31 02:57:08;;;;;;;1.63;1.52;;;15.70;99.90;;;;;;5006507;28;20053;-62
2023/08/31 02:59:35;;;;;;;1.20;1.10;;;15.70;99.90;;;;;;5020724;28;20749;-68
2023/08/31 03:02:05;;;;;;;1.90;1.80;;;15.70;99.90;;;;;;5008788;28;20116;-65
2023/08/31 03:04:32;;;;;;;2.38;1.25;;;15.80;99.90;;;;;;5031761;28;20064;-62
2023/08/31 03:06:59;;;;;;;1.40;1.30;;;15.80;99.90;;;;;;5016371;28;20115;-64
2023/08/31 03:09:26;;;;;;;3.60;2.53;;;15.70;99.90;;;;;;5007429;28;20392;-65
2023/08/31 03:11:53;;;;;;;1.85;1.48;;;15.70;99.90;;;;;;5022200;28;20060;-63
2023/08/31 03:14:20;;;;;;;1.83;1.73;;;15.70;99.90;;;;;;5028036;28;20046;-69
2023/08/31 03:16:46;;;;;;;1.70;1.60;;;15.70;99.90;;;;;;5025957;28;20050;-64
2023/08/31 03:19:14;;;;;;;1.80;1.33;;;15.60;99.90;;;;;;5023483;28;20049;-62
2023/08/31 03:21:41;;;;;;;2.22;1.13;;;15.60;99.90;;;;;;5014095;28;20041;-66
2023/08/31 03:24:07;;;;;;;3.67;1.85;;;15.50;99.90;;;;;;5008306;28;20115;-64
2023/08/31 03:26:34;;;;;;;1.90;1.77;;;15.50;99.90;;;;;;5007346;28;20046;-63
2023/08/31 03:29:03;;;;;;;2.28;1.85;;;15.50;99.90;;;;;;5011144;28;20069;-69
2023/08/31 03:31:31;;;;;;;1.70;1.25;;;15.50;99.90;;;;;;5014692;28;20707;-67
2023/08/31 03:33:58;;;;;;;1.20;1.10;;;15.50;99.90;;;;;;5011806;28;20128;-66
2023/08/31 03:36:26;;;;;;;1.33;1.13;;;15.50;99.90;;;;;;5027391;28;20052;-62
2023/08/31 03:38:52;;;;;;;2.67;1.30;;;15.50;99.90;;;;;;5012311;28;20088;-65
2023/08/31 03:41:19;;;;;;;1.45;1.35;;;15.50;99.90;;;;;;5011083;28;20042;-65
2023/08/31 03:43:46;;;;;;;2.30;1.38;;;15.50;99.90;;;;;;5010588;28;20041;-64
2023/08/31 03:46:13;;;;;;;0.88;0.88;;;15.50;99.90;;;;;;5013587;28;20046;-64
2023/08/31 03:48:40;;;;;;;2.28;1.48;;;15.50;99.90;;;;;;5037377;28;20061;-64
2023/08/31 03:51:07;;;;;;;1.42;1.33;;;15.50;99.90;;;;;;5011294;28;20099;-64
2023/08/31 03:53:34;;;;;;;2.67;1.10;;;15.50;99.90;;;;;;5007248;28;20057;-62
2023/08/31 03:56:03;;;;;;;1.13;1.02;;;15.50;99.90;;;;;;5026795;28;20045;-67
2023/08/31 03:58:31;;;;;;;1.55;1.10;;;15.50;99.90;;;;;;5026141;28;20511;-66
2023/08/31 04:00:58;;;;;;;2.13;1.17;;;15.50;99.90;;;;;;5023202;28;20120;-65
2023/08/31 04:03:25;;;;;;;1.50;1.20;;;15.50;99.90;;;;;;5013739;28;20050;-64
2023/08/31 04:05:56;;;;;;;0.95;0.90;;;15.50;99.90;;;;;;5031684;28;20050;-64
2023/08/31 04:08:23;;;;;;;1.85;1.23;;;15.50;99.90;;;;;;5008409;28;20088;-65
2023/08/31 04:10:50;;;;;;;1.52;0.95;;;15.50;99.90;;;;;;5009705;28;20450;-63
2023/08/31 04:13:16;;;;;;;1.48;1.38;;;15.50;99.90;;;;;;5020756;28;20050;-65
2023/08/31 04:15:43;;;;;;;1.33;1.23;;;15.50;99.90;;;;;;5012633;28;20141;-63
2023/08/31 04:18:10;;;;;;;2.92;1.17;;;15.50;99.90;;;;;;5028671;28;20049;-62
2023/08/31 04:20:37;;;;;;;3.22;1.15;;;15.50;99.90;;;;;;5025441;28;20053;-64
2023/08/31 04:23:04;;;;;;;1.05;0.98;;;15.50;99.90;;;;;;5017191;28;20048;-63
2023/08/31 04:25:31;;;;;;;1.33;1.20;;;15.40;99.90;;;;;;5009204;28;20046;-64
2023/08/31 04:27:58;;;;;;;1.15;1.05;;;15.40;99.90;;;;;;5013609;28;20569;-65
2023/08/31 04:30:26;;;;;;;1.95;1.27;;;15.40;99.90;;;;;;5013971;28;20038;-63
2023/08/31 04:32:53;;;;;;;1.45;1.08;;;15.40;99.90;;;;;;5008231;28;20716;-64
2023/08/31 04:35:20;;;;;;;1.48;0.80;;;15.40;99.90;;;;;;5011743;28;20056;-62
2023/08/31 04:37:47;;;;;;;1.02;1.02;;;15.40;99.90;;;;;;5013172;28;20045;-66
2023/08/31 04:40:14;;;;;;;1.42;1.15;;;15.40;99.90;;;;;;5012389;28;20053;-64
2023/08/31 04:42:41;;;;;;;2.50;1.00;;;15.40;99.90;;;;;;5011146;28;20041;-62
2023/08/31 04:45:08;;;;;;;0.57;0.57;;;15.40;99.90;;;;;;5011336;28;20067;-63
2023/08/31 04:47:35;;;;;;;0.60;0.60;;;15.40;99.90;;;;;;5012119;28;20054;-65
2023/08/31 04:50:03;;;;;;;2.63;0.82;;;15.30;99.90;;;;;;5008711;28;20444;-64
2023/08/31 04:52:30;;;;;;;1.27;0.70;;;15.30;99.90;;;;;;5008082;28;20064;-63
2023/08/31 04:54:57;;;;;;;1.08;1.00;;;15.30;99.90;;;;;;5014632;28;20064;-64
2023/08/31 04:57:25;;;;;;;1.27;1.00;;;15.40;99.90;;;;;;5006396;28;20674;-61
2023/08/31 04:59:52;;;;;;;1.30;1.10;;;15.40;99.90;;;;;;5007291;28;20045;-64
2023/08/31 05:02:19;;;;;;;0.98;0.68;;;15.40;99.90;;;;;;5012013;28;20050;-63
2023/08/31 05:04:46;;;;;;;0.73;0.68;;;15.40;99.90;;;;;;5006371;28;20115;-62
2023/08/31 05:07:13;;;;;;;1.63;0.85;;;15.30;99.90;;;;;;5011256;28;20116;-65
2023/08/31 05:09:40;;;;;;;1.20;0.60;;;15.30;99.90;;;;;;5006890;28;20104;-64
2023/08/31 05:12:07;;;;;;;0.95;0.73;;;15.30;99.90;;;;;;5008133;28;20660;-63
2023/08/31 05:14:37;;;;;;;0.80;0.80;;;15.30;99.90;;;;;;5003406;28;20081;-66
2023/08/31 05:17:04;;;;;;;1.73;0.93;;;15.30;99.90;;;;;;5010083;28;20143;-66
2023/08/31 05:19:31;;;;;;;1.25;1.15;;;15.30;99.90;;;;;;5011673;28;20047;-65
2023/08/31 05:21:58;;;;;;;0.75;0.68;;;15.30;99.90;;;;;;5007721;28;20042;-69
2023/08/31 05:24:25;;;;;;;1.30;1.10;;;15.30;99.90;;;;;;5006197;28;20103;-66
2023/08/31 05:26:52;;;;;;;0.98;0.90;;;15.30;99.90;;;;;;5013079;28;20095;-63
2023/08/31 05:29:19;;;;;;;2.05;1.65;;;15.40;99.90;;;;;;5013891;28;20104;-67
2023/08/31 05:31:46;;;;;;;1.65;0.90;;;15.40;99.90;;;;;;5006552;28;20065;-65
2023/08/31 05:34:17;;;;;;;1.45;0.70;;;15.40;99.90;;;;;;5013466;28;20053;-62
2023/08/31 05:36:44;;;;;;;0.65;0.65;;;15.40;99.90;;;;;;5013435;28;20053;-62
2023/08/31 05:39:11;;;;;;;1.92;0.70;;;15.40;99.90;;;;;;5008871;28;20034;-72
2023/08/31 05:41:40;;;;;;;2.08;0.65;;;15.40;99.90;;;;;;5011009;28;20406;-61
2023/08/31 05:44:09;;;;;;;1.00;0.65;;;15.50;99.90;;;;;;5013748;28;20084;-70
2023/08/31 05:46:36;;;;;;;1.00;1.00;;;15.60;99.90;;;;;;5005106;28;20049;-68
2023/08/31 05:49:03;;;;;;;1.77;0.80;;;15.60;99.90;;;;;;5008143;28;20050;-69
2023/08/31 05:51:31;;;;;;;2.20;0.73;;;15.60;99.90;;;;;;5007025;28;20125;-65
2023/08/31 05:53:58;;;;;;;0.95;0.70;;;15.80;99.90;;;;;;5003035;28;20093;-62
2023/08/31 05:56:24;;;;;;;1.40;1.10;;;15.80;99.90;;;;;;5008553;28;20167;-63
2023/08/31 05:58:54;;;;;;;1.00;0.90;;;15.90;99.90;;;;;;5009207;28;20151;-64
2023/08/31 06:01:22;;;;;;;1.10;1.00;;;16.00;99.90;;;;;;5006904;28;20543;-65
2023/08/31 06:03:49;;;;;;;1.30;1.10;;;16.00;99.90;;;;;;5001805;28;20138;-64
2023/08/31 06:06:16;;;;;;;2.25;1.30;;;16.00;99.90;;;;;;5025346;28;20459;-63
2023/08/31 06:08:43;;;;;;;3.17;0.98;;;16.00;99.90;;;;;;5015067;28;20064;-63
2023/08/31 06:11:10;;;;;;;1.33;1.20;;;16.00;99.90;;;;;;5007188;28;20049;-62
2023/08/31 06:13:38;;;;;;;1.55;1.45;;;16.10;99.90;;;;;;5010723;28;20045;-64
2023/08/31 06:16:04;;;;;;;2.50;1.02;;;16.10;99.90;;;;;;5012356;28;20124;-65
2023/08/31 06:18:31;;;;;;;1.48;1.33;;;16.20;99.90;;;;;;5007568;28;20038;-72
2023/08/31 06:20:58;;;;;;;1.67;1.05;;;16.20;99.90;;;;;;5006454;28;20132;-65
2023/08/31 06:23:25;;;;;;;1.10;1.00;;;16.20;99.90;;;;;;5009834;28;20544;-63
2023/08/31 06:25:52;;;;;;;2.10;1.40;;;16.20;99.90;;;;;;5013635;28;20267;-70
2023/08/31 06:28:19;;;;;;;1.40;1.10;;;16.20;99.90;;;;;;5005511;28;20196;-62
2023/08/31 06:30:47;;;;;;;3.80;1.85;;;16.30;99.90;;;;;;5010400;28;20096;-64
2023/08/31 06:33:17;;;;;;;1.38;1.27;;;16.30;99.90;;;;;;5009502;28;20432;-64
2023/08/31 06:35:48;;;;;;;3.40;1.17;;;16.30;99.90;;;;;;5004710;28;20052;-64
2023/08/31 06:38:15;;;;;;;1.33;1.23;;;16.40;99.90;;;;;;5010475;28;20042;-64
2023/08/31 06:40:43;;;;;;;1.20;0.93;;;16.40;99.90;;;;;;5017811;28;20553;-68
2023/08/31 06:43:10;;;;;;;1.40;0.95;;;16.40;99.90;;;;;;5007642;28;20334;-68
2023/08/31 06:45:38;;;;;;;1.33;1.23;;;16.50;99.90;;;;;;5010283;28;20476;-66
2023/08/31 06:48:05;;;;;;;1.25;1.15;;;16.50;99.90;;;;;;5007967;28;20052;-64
2023/08/31 06:50:35;;;;;;;1.60;1.15;;;16.50;99.90;;;;;;5007010;28;20503;-67
2023/08/31 06:53:03;;;;;;;1.58;1.48;;;16.50;99.90;;;;;;5002574;28;20054;-63
2023/08/31 06:55:31;;;;;;;1.67;1.13;;;16.50;99.90;;;;;;5008766;28;20061;-65
2023/08/31 06:57:59;;;;;;;1.83;1.27;;;16.60;99.90;;;;;;5010024;28;20052;-64
2023/08/31 07:00:26;;;;;;;1.10;1.00;;;16.60;99.90;;;;;;5004423;28;20046;-61
2023/08/31 07:02:53;;;;;;;2.30;1.80;;;16.60;99.90;;;;;;5006344;28;20054;-68
2023/08/31 07:05:25;;;;;;;1.70;1.58;;;16.60;99.90;;;;;;5008263;28;20441;-68
2023/08/31 07:07:54;;;;;;;1.88;1.63;;;16.70;99.90;;;;;;5001600;28;20064;-62
2023/08/31 07:10:22;;;;;;;2.00;1.90;;;16.60;99.90;;;;;;5007610;28;20038;-63
2023/08/31 07:12:49;;;;;;;4.25;2.25;;;16.70;99.90;;;;;;5009740;28;20129;-62
2023/08/31 07:15:16;;;;;;;2.90;1.70;;;16.70;99.90;;;;;;5006621;28;20411;-63
2023/08/31 07:17:43;;;;;;;1.48;1.00;;;16.80;99.90;;;;;;5003620;28;20046;-69
2023/08/31 07:20:11;;;;;;;4.45;1.88;;;16.80;99.90;;;;;;5008910;28;20462;-66
2023/08/31 07:22:40;;;;;;;2.15;1.38;;;16.80;99.90;;;;;;5007135;28;20038;-63
2023/08/31 07:25:07;;;;;;;2.78;1.20;;;16.80;99.90;;;;;;5011395;28;20050;-63
2023/08/31 07:27:34;;;;;;;1.50;1.40;;;16.80;99.90;;;;;;5008029;28;20120;-63
2023/08/31 07:30:03;;;;;;;1.48;1.38;;;16.80;99.90;;;;;;5006548;28;20041;-66
2023/08/31 07:32:31;;;;;;;4.97;1.58;;;16.80;99.90;;;;;;5008238;28;20059;-65
2023/08/31 07:34:58;;;;;;;1.30;1.20;;;16.90;99.90;;;;;;5007079;28;20038;-70
2023/08/31 07:37:25;;;;;;;2.35;1.50;;;16.90;99.90;;;;;;5012036;28;20145;-64
2023/08/31 07:39:52;;;;;;;1.25;0.90;;;16.90;99.90;;;;;;5010295;28;20103;-62
2023/08/31 07:42:19;;;;;;;2.63;1.77;;;16.90;99.90;;;;;;5010319;28;20235;-67
2023/08/31 07:44:46;;;;;;;1.17;1.08;;;16.90;99.90;;;;;;5010558;28;20038;-65
2023/08/31 07:47:13;;;;;;;1.95;0.85;;;16.90;99.90;;;;;;5013760;28;20037;-62
2023/08/31 07:49:41;;;;;;;2.58;1.10;;;16.80;99.90;;;;;;5009858;28;20151;-63
2023/08/31 07:52:08;;;;;;;1.25;1.15;;;16.80;99.90;;;;;;5011312;28;20053;-63
2023/08/31 07:54:35;;;;;;;1.67;1.58;;;16.90;99.90;;;;;;5006383;28;20053;-67
2023/08/31 07:57:02;;;;;;;1.35;1.17;;;16.90;99.90;;;;;;5023017;28;20050;-68
2023/08/31 07:59:29;;;;;;;1.20;1.10;;;16.90;99.90;;;;;;5009138;28;20601;-64
2023/08/31 08:01:56;;;;;;;1.08;1.08;;;16.90;99.90;;;;;;5012140;28;20049;-64
2023/08/31 08:04:24;;;;;;;4.03;1.48;;;16.90;99.90;;;;;;5015657;28;20046;-62
2023/08/31 08:06:51;;;;;;;1.30;1.10;;;17.00;99.90;;;;;;5010138;28;20056;-63
2023/08/31 08:09:18;;;;;;;1.17;1.05;;;17.10;99.90;;;;;;5009274;28;20069;-64
2023/08/31 08:11:45;;;;;;;2.05;1.23;;;17.10;99.90;;;;;;5014851;28;20073;-65
2023/08/31 08:14:12;;;;;;;1.05;0.82;;;17.20;99.90;;;;;;5011536;28;20077;-68
2023/08/31 08:16:39;;;;;;;1.35;0.90;;;17.30;99.90;;;;;;5011447;28;20040;-62
2023/08/31 08:19:07;;;;;;;1.90;1.52;;;17.30;99.90;;;;;;5013306;28;20107;-65
2023/08/31 08:21:34;;;;;;;1.10;1.00;;;17.40;99.90;;;;;;5016115;28;20539;-63
2023/08/31 08:24:01;;;;;;;1.20;1.10;;;17.40;99.90;;;;;;5009188;28;20038;-63
2023/08/31 08:26:28;;;;;;;1.45;1.27;;;17.50;99.90;;;;;;5009592;28;20108;-65
2023/08/31 08:28:55;;;;;;;1.30;1.20;;;17.50;99.90;;;;;;5018257;28;20037;-65
2023/08/31 08:31:22;;;;;;;3.03;1.48;;;17.40;99.90;;;;;;5011391;28;20037;-62
2023/08/31 08:33:51;;;;;;;3.15;1.30;;;17.40;99.90;;;;;;5010288;28;20517;-63
2023/08/31 08:36:18;;;;;;;1.02;0.82;;;17.50;99.90;;;;;;5016158;28;20045;-62
2023/08/31 08:38:45;;;;;;;1.17;1.08;;;17.50;99.90;;;;;;5010849;28;20049;-64
2023/08/31 08:41:13;;;;;;;1.70;1.10;;;17.50;99.90;;;;;;5007994;28;20042;-63
2023/08/31 08:43:43;;;;;;;1.55;1.38;;;17.60;99.90;;;;;;5012435;28;20136;-65
2023/08/31 08:46:11;;;;;;;1.52;1.30;;;17.70;99.90;;;;;;5015114;28;20480;-65
2023/08/31 08:48:39;;;;;;;4.18;1.67;;;17.90;99.90;;;;;;5008155;28;20077;-64
2023/08/31 08:51:07;;;;;;;3.20;2.90;;;17.90;99.90;;;;;;5013018;28;20046;-69
2023/08/31 08:53:34;;;;;;;4.28;2.45;;;17.90;99.90;;;;;;5017992;28;20088;-63
2023/08/31 08:56:01;;;;;;;7.68;1.65;;;18.00;99.90;;;;;;5008428;28;20550;-67
2023/08/31 08:58:28;;;;;;;1.23;0.90;;;18.10;99.90;;;;;;5010049;28;20407;-63
2023/08/31 09:00:59;;;;;;;1.73;1.20;;;18.10;99.90;;;;;;5019678;28;20140;-64
2023/08/31 09:03:25;;;;;;;;;;;18.10;99.90;;;;;;5024541;28;20058;-63
2023/08/31 09:05:52;;;;;;;1.58;1.35;;;18.10;99.90;;;;;;5008608;28;20409;-65
2023/08/31 09:08:29;;;;;;;1.67;1.45;;;18.10;99.90;;;;;;5014519;28;20049;-62
2023/08/31 09:11:01;;;;;;;2.15;1.33;;;18.10;99.90;;;;;;5012995;28;20048;-62
2023/08/31 09:13:29;;;;;;;1.10;0.93;;;18.10;99.90;;;;;;5009764;28;20479;-69
2023/08/31 09:15:57;;;;;;;1.88;1.50;;;18.10;99.90;;;;;;5013674;28;20053;-67
2023/08/31 09:18:26;;;;;;;3.25;1.38;;;17.90;99.90;;;;;;5009466;28;20668;-63
2023/08/31 09:20:56;;;;;;;3.63;1.45;;;17.90;99.90;;;;;;5006019;28;20117;-64
2023/08/31 09:23:24;;;;;;;1.20;1.10;;;17.80;99.90;;;;;;5010588;28;20514;-64
2023/08/31 09:25:55;;;;;;;1.58;1.48;;;17.60;99.90;;;;;;5014172;28;20057;-65
2023/08/31 09:28:26;;;;;;;1.52;1.13;;;17.60;99.90;;;;;;5009986;28;20042;-65
2023/08/31 09:31:04;;;;;;;1.42;1.27;;;17.60;99.90;;;;;;5011427;28;20085;-63
2023/08/31 09:33:31;;;;;;;3.05;1.50;;;17.60;99.90;;;;;;5010847;28;20060;-62
2023/08/31 09:36:01;;;;;;;2.58;1.67;;;17.70;99.90;;;;;;5008931;28;20602;-63
2023/08/31 09:38:28;;;;;;;3.87;1.70;;;17.70;99.90;;;;;;5009021;28;20057;-64
2023/08/31 09:41:08;;;;;;;1.63;1.52;;;17.60;99.90;;;;;;5011400;28;20435;-64
2023/08/31 09:43:35;;;;;;;4.25;1.50;;;17.40;99.90;;;;;;5016547;28;20042;-64
2023/08/31 09:46:04;;;;;;;2.80;1.55;;;17.50;99.90;;;;;;5006496;28;20547;-69
2023/08/31 09:48:31;;;;;;;1.13;1.02;;;17.60;99.90;;;;;;5011378;28;20092;-65
2023/08/31 09:51:03;;;;;;;2.88;1.35;;;17.80;99.90;;;;;;5014787;28;20496;-63
2023/08/31 09:53:31;;;;;;;2.22;1.60;;;17.90;99.90;;;;;;5011366;28;20049;-66
2023/08/31 09:55:59;;;;;;;1.55;1.45;;;18.00;99.90;;;;;;5008025;28;20042;-66
2023/08/31 09:58:27;;;;;;;1.42;1.33;;;18.00;99.90;;;;;;5007523;28;20144;-68
2023/08/31 10:00:55;;;;;;;1.47;1.20;;;18.20;99.90;;;;;;5004913;28;20049;-66
2023/08/31 10:03:23;;;;;;;1.10;1.08;;;18.10;99.90;;;;;;5006634;28;20048;-73
2023/08/31 10:05:50;;;;;;;2.05;1.55;;;18.20;99.90;;;;;;5009600;28;20070;-62
2023/08/31 10:08:18;;;;;;;1.20;1.10;;;18.20;99.90;;;;;;5011056;28;20045;-63
2023/08/31 10:10:46;;;;;;;1.30;1.20;;;18.20;99.90;;;;;;5006291;28;20049;-72
2023/08/31 10:13:15;;;;;;;1.42;1.33;;;18.20;99.90;;;;;;5011081;28;20110;-65
2023/08/31 10:15:44;;;;;;;3.88;1.00;;;18.10;99.90;;;;;;5011646;28;20068;-63
2023/08/31 10:18:11;;;;;;;2.10;1.23;;;18.10;99.90;;;;;;5006200;28;20045;-66
2023/08/31 10:20:42;;;;;;;1.90;1.40;;;17.90;99.90;;;;;;5008897;28;20041;-66
2023/08/31 10:23:10;;;;;;;1.40;1.30;;;17.70;99.90;;;;;;5012950;28;20044;-67
2023/08/31 10:25:49;;;;;;;1.65;1.35;;;17.60;99.90;;;;;;5007711;28;20121;-66
2023/08/31 10:28:23;;;;;;;2.03;1.02;;;17.60;99.90;;;;;;5005581;28;20041;-62
2023/08/31 10:31:03;;;;;;;2.35;1.65;;;17.70;99.90;;;;;;5009662;28;20072;-64
2023/08/31 10:33:34;;;;;;;;;;;17.90;99.90;;;;;;5009772;28;20063;-65
2023/08/31 10:36:01;;;;;;;1.17;1.08;;;18.10;99.90;;;;;;5007342;28;19929;-65
2023/08/31 10:38:32;;;;;;;2.63;1.40;;;18.20;99.90;;;;;;5008344;28;20111;-63
2023/08/31 10:41:08;;;;;;;2.13;1.27;;;18.10;99.90;;;;;;5009124;28;20578;-71
2023/08/31 10:43:45;;;;;;;1.13;0.90;;;18.20;99.90;;;;;;5004022;28;20045;-65
2023/08/31 10:46:32;;;;;;;1.80;1.13;;;18.20;99.90;;;;;;5009302;28;20179;-62
2023/08/31 10:48:59;;;;;;;1.48;0.98;;;18.00;99.90;;;;;;5014675;28;20052;-70
2023/08/31 10:51:28;;;;;;;1.17;0.93;;;18.00;99.90;;;;;;5006116;28;20127;-69
2023/08/31 10:54:13;;;;;;;2.35;1.10;;;18.10;99.90;;;;;;5009918;28;20049;-68
2023/08/31 10:57:01;;;;;;;2.85;1.20;;;18.00;99.90;;;;;;5011436;28;20073;-63
2023/08/31 10:59:42;;;;;;;1.42;0.90;;;18.00;99.90;;;;;;5003779;28;20124;-71
2023/08/31 11:02:09;;;;;;;1.92;1.45;;;18.00;99.90;;;;;;5010199;28;20045;-65
2023/08/31 11:05:14;;;;;;;1.15;1.05;;;18.00;99.90;;;;;;5006491;28;20555;-67
2023/08/31 11:07:49;;;;;;;1.75;1.65;;;18.00;99.90;;;;;;4960607;28;20142;-64
2023/08/31 11:10:17;;;;;;;2.70;1.33;;;17.90;99.90;;;;;;5002224;28;20081;-68
2023/08/31 11:12:50;;;;;;;1.35;0.90;;;17.90;99.90;;;;;;5010387;28;20109;-64
2023/08/31 11:15:19;;;;;;;2.45;1.00;;;17.90;99.90;;;;;;5014141;28;20049;-68
2023/08/31 11:17:47;;;;;;;1.33;0.95;;;17.80;99.90;;;;;;5011235;28;20127;-67
2023/08/31 11:20:18;;;;;;;1.48;1.00;;;17.80;99.90;;;;;;5014666;28;20514;-65
2023/08/31 11:22:49;;;;;;;1.65;0.98;;;17.80;99.90;;;;;;5016062;28;20038;-63
2023/08/31 11:25:17;;;;;;;0.98;0.98;;;17.80;99.90;;;;;;5011946;28;20045;-70
2023/08/31 11:27:59;;;;;;;3.20;0.93;;;17.90;99.90;;;;;;5009429;28;20485;-63
2023/08/31 11:30:28;;;;;;;2.00;1.20;;;18.00;99.90;;;;;;5003178;28;20041;-63
2023/08/31 11:32:55;;;;;;;1.45;1.15;;;18.10;99.90;;;;;;5008010;28;20084;-63
2023/08/31 11:35:24;;;;;;;1.33;0.95;;;18.10;99.90;;;;;;5009576;28;20125;-65
2023/08/31 11:37:55;;;;;;;1.95;1.10;;;18.20;99.90;;;;;;5009545;28;20080;-67
2023/08/31 11:40:22;;;;;;;1.42;1.10;;;18.30;99.90;;;;;;5009458;28;20076;-67
2023/08/31 11:42:50;;;;;;;1.35;1.00;;;18.20;99.90;;;;;;5007205;28;20403;-66
2023/08/31 11:45:18;;;;;;;1.10;1.00;;;18.10;99.90;;;;;;5012489;28;20049;-64
2023/08/31 11:47:45;;;;;;;1.13;0.80;;;18.20;99.90;;;;;;5013109;28;20077;-63
2023/08/31 11:50:13;;;;;;;1.10;1.00;;;18.30;99.90;;;;;;5009521;28;20087;-64
2023/08/31 11:52:41;;;;;;;1.67;1.35;;;18.20;99.90;;;;;;5008869;28;20132;-65
2023/08/31 11:55:19;;;;;;;1.20;0.90;;;18.40;99.90;;;;;;5019375;28;20037;-66
2023/08/31 11:57:56;;;;;;;1.55;1.30;;;18.40;99.90;;;;;;5008685;28;20041;-62
2023/08/31 12:00:23;;;;;;;4.35;1.10;;;18.10;99.90;;;;;;5012399;28;20930;-65
2023/08/31 12:02:57;;;;;;;1.48;1.38;;;18.10;99.90;;;;;;5010462;28;20399;-64
2023/08/31 12:05:25;;;;;;;2.15;1.17;;;18.10;99.90;;;;;;5006894;28;20403;-63
2023/08/31 12:07:54;;;;;;;1.15;1.05;;;18.20;99.90;;;;;;5012105;28;20057;-67
2023/08/31 12:10:23;;;;;;;1.77;1.00;;;18.30;99.90;;;;;;5010878;28;20076;-63
2023/08/31 12:12:52;;;;;;;0.95;0.88;;;18.40;99.90;;;;;;5013007;28;20038;-63
2023/08/31 12:15:22;;;;;;;3.47;0.80;;;18.40;99.90;;;;;;5009503;28;20037;-70
2023/08/31 12:17:54;;;;;;;1.38;0.93;;;18.50;99.90;;;;;;5014096;28;20041;-63
2023/08/31 12:20:29;;;;;;;2.80;1.38;;;18.50;99.90;;;;;;5014521;28;20038;-67
2023/08/31 12:22:55;;;;;;;1.73;1.15;;;18.40;99.90;;;;;;5006222;28;20562;-73
2023/08/31 12:25:23;;;;;;;1.65;0.85;;;18.30;99.90;;;;;;5010547;28;20424;-63
2023/08/31 12:27:50;;;;;;;4.03;1.80;;;18.30;99.90;;;;;;5012697;28;20041;-62
2023/08/31 12:30:17;;;;;;;2.75;1.15;;;18.20;99.90;;;;;;5008313;28;20496;-65
2023/08/31 12:32:44;;;;;;;3.40;1.30;;;18.20;99.90;;;;;;5008952;28;20046;-62
2023/08/31 12:35:11;;;;;;;4.13;2.97;;;18.10;99.90;;;;;;5010398;28;20112;-63
2023/08/31 12:37:38;;;;;;;3.90;1.02;;;18.10;99.90;;;;;;5012113;28;20447;-63
2023/08/31 12:40:09;;;;;;;0.98;0.90;;;17.90;99.90;;;;;;5009586;28;20458;-64
2023/08/31 12:42:36;;;;;;;2.58;1.10;;;18.00;99.90;;;;;;5014293;28;20054;-65
2023/08/31 12:45:05;;;;;;;1.10;0.90;;;18.10;99.90;;;;;;5011605;28;20034;-73
2023/08/31 12:47:32;;;;;;;4.63;1.40;;;18.10;99.90;;;;;;5007151;28;20104;-64
2023/08/31 12:49:59;;;;;;;1.15;1.05;;;18.30;99.90;;;;;;5007933;28;20061;-66
2023/08/31 12:52:26;;;;;;;1.55;1.13;;;18.30;99.90;;;;;;5012245;28;20062;-70
2023/08/31 12:54:53;;;;;;;1.73;1.10;;;18.50;99.90;;;;;;5014153;28;20037;-67
2023/08/31 12:57:20;;;;;;;2.40;1.20;;;18.50;99.90;;;;;;5008385;28;20064;-65